Time;durP1;ratioP1;P1;durP2;ratioP2;P2;SDS_P1;SDS_P2;PMS_P1;PMS_P2;Temp;Humidity;BMP_temperature;BMP_pressure;BME280_temperature;BME280_humidity;BME280_pressure;Samples;Min_cycle;Max_cycle;Signal;HPM_P1;HPM_P2
2021/04/10 00:01:07;;;;;;;3.50;2.30;;;;;;;13.78;35.08;96273.13;5012102;28;20216;-67
2021/04/10 00:03:33;;;;;;;5.27;2.20;;;;;;;13.83;35.15;96273.34;5012915;28;20291;-68
2021/04/10 00:05:58;;;;;;;9.83;2.90;;;;;;;13.51;35.63;96268.53;5023717;28;20510;-66
2021/04/10 00:08:24;;;;;;;2.93;2.57;;;;;;;13.58;35.69;96268.56;5012939;28;20439;-68
2021/04/10 00:10:50;;;;;;;4.60;2.30;;;;;;;13.51;35.82;96263.28;5012760;28;20191;-68
2021/04/10 00:13:15;;;;;;;6.50;2.13;;;;;;;13.49;35.70;96264.44;5012087;28;20192;-67
2021/04/10 00:15:41;;;;;;;5.57;2.60;;;;;;;13.61;35.77;96277.88;5013272;28;20501;-68
2021/04/10 00:18:06;;;;;;;4.03;2.27;;;;;;;13.48;36.11;96270.75;5017689;28;20516;-67
2021/04/10 00:20:32;;;;;;;3.53;2.17;;;;;;;13.45;36.07;96266.66;5012492;28;20266;-68
2021/04/10 00:22:58;;;;;;;5.33;2.67;;;;;;;13.24;36.17;96274.59;5012896;28;20208;-67
2021/04/10 00:25:23;;;;;;;5.93;1.93;;;;;;;13.58;36.06;96273.00;5013126;28;20187;-68
2021/04/10 00:27:49;;;;;;;20.67;2.70;;;;;;;13.75;35.44;96269.06;5012469;28;20726;-67
2021/04/10 00:30:15;;;;;;;6.00;2.30;;;;;;;13.45;36.50;96274.56;5012085;28;20195;-68
2021/04/10 00:32:42;;;;;;;4.53;2.23;;;;;;;13.39;35.97;96275.31;5012347;28;20243;-68
2021/04/10 00:35:08;;;;;;;6.10;2.20;;;;;;;13.31;36.42;96272.81;5012767;28;20424;-68
2021/04/10 00:37:35;;;;;;;3.03;2.27;;;;;;;13.49;35.76;96269.72;5011640;28;20521;-67
2021/04/10 00:40:05;;;;;;;4.00;2.00;;;;;;;13.13;36.57;96276.75;5012133;28;20455;-68
2021/04/10 00:42:30;;;;;;;5.90;2.23;;;;;;;13.17;36.50;96277.97;5011735;28;20448;-67
2021/04/10 00:44:56;;;;;;;6.67;2.27;;;;;;;12.99;36.88;96269.75;5012026;28;20435;-67
2021/04/10 00:47:22;;;;;;;6.83;2.03;;;;;;;13.55;35.84;96261.06;5011289;28;20211;-69
2021/04/10 00:49:48;;;;;;;4.73;2.03;;;;;;;13.52;35.75;96267.53;5011735;28;20180;-68
2021/04/10 00:52:14;;;;;;;10.90;2.47;;;;;;;13.26;36.26;96248.91;5011880;28;20195;-68
2021/04/10 00:54:40;;;;;;;6.27;2.30;;;;;;;13.08;36.50;96259.91;5012389;28;20191;-68
2021/04/10 00:57:06;;;;;;;2.93;1.93;;;;;;;12.93;36.65;96250.31;5025929;28;20814;-67
2021/04/10 00:59:31;;;;;;;5.37;2.37;;;;;;;13.20;36.43;96253.13;5012346;28;20238;-68
2021/04/10 01:01:58;;;;;;;6.40;2.30;;;;;;;13.25;36.58;96252.53;4994351;28;20647;-68
2021/04/10 01:04:24;;;;;;;6.23;2.20;;;;;;;13.03;37.12;96252.59;5023858;28;20207;-68
2021/04/10 01:06:50;;;;;;;3.87;1.87;;;;;;;12.99;36.90;96244.25;5015480;28;20723;-69
2021/04/10 01:09:15;;;;;;;4.10;2.00;;;;;;;13.38;36.42;96239.47;5010170;28;20717;-66
2021/04/10 01:12:02;;;;;;;5.57;2.13;;;;;;;12.92;37.33;96238.16;5011111;28;20188;-68
2021/04/10 01:14:51;;;;;;;4.43;2.10;;;;;;;12.95;37.39;96234.31;5011751;28;20227;-68
2021/04/10 01:17:21;;;;;;;3.97;1.60;;;;;;;13.25;36.83;96232.28;5011662;28;20420;-66
2021/04/10 01:20:27;;;;;;;4.53;2.27;;;;;;;13.11;37.26;96233.22;5015633;28;20462;-69
2021/04/10 01:23:06;;;;;;;2.63;2.10;;;;;;;12.97;37.62;96240.19;5012970;28;20451;-69
2021/04/10 01:25:57;;;;;;;7.00;1.90;;;;;;;13.22;37.26;96237.97;5012108;28;20631;-68
2021/04/10 01:28:51;;;;;;;2.27;1.67;;;;;;;13.47;36.44;96229.63;5012267;28;20427;-66
2021/04/10 01:31:19;;;;;;;3.33;1.80;;;;;;;13.53;36.43;96242.00;5002174;28;20447;-69
2021/04/10 01:33:52;;;;;;;3.97;2.10;;;;;;;13.45;36.93;96242.19;5013355;28;20795;-67
2021/04/10 01:36:21;;;;;;;5.50;2.10;;;;;;;13.51;36.60;96236.94;5010762;28;20427;-67
2021/04/10 01:38:48;;;;;;;4.73;1.73;;;;;;;12.92;37.52;96238.16;5026902;28;20434;-68
2021/04/10 01:41:15;;;;;;;4.20;2.07;;;;;;;12.93;37.76;96249.47;5008903;28;20427;-68
2021/04/10 01:43:41;;;;;;;5.97;2.10;;;;;;;12.69;38.43;96243.63;5010387;28;21062;-69
2021/04/10 01:46:07;;;;;;;5.40;1.83;;;;;;;12.95;37.76;96237.78;5010326;28;20481;-67
2021/04/10 01:48:34;;;;;;;3.20;1.90;;;;;;;13.19;37.35;96238.34;5010523;28;20423;-67
2021/04/10 01:51:00;;;;;;;3.50;1.80;;;;;;;12.75;38.31;96246.31;5010204;28;20184;-67
2021/04/10 01:53:26;;;;;;;6.27;2.03;;;;;;;13.27;37.88;96235.56;4989949;28;20985;-66
2021/04/10 01:55:52;;;;;;;5.60;2.00;;;;;;;13.02;38.07;96238.63;5006521;28;20442;-68
2021/04/10 01:58:18;;;;;;;3.27;2.00;;;;;;;13.28;37.74;96231.91;5022687;28;20427;-67
2021/04/10 02:00:45;;;;;;;3.93;1.70;;;;;;;13.30;37.76;96231.72;5010428;28;20258;-67
2021/04/10 02:03:13;;;;;;;4.40;1.93;;;;;;;12.90;38.55;96240.16;5010059;28;20447;-68
2021/04/10 02:05:39;;;;;;;5.57;1.87;;;;;;;12.63;39.38;96234.66;5010538;28;20428;-67
2021/04/10 02:08:07;;;;;;;2.13;1.60;;;;;;;13.02;38.39;96237.81;5025873;28;20499;-66
2021/04/10 02:10:33;;;;;;;3.87;2.00;;;;;;;12.70;38.68;96238.19;5025790;28;20411;-67
2021/04/10 02:12:58;;;;;;;2.37;1.90;;;;;;;12.94;38.40;96235.31;5011269;28;20447;-68
2021/04/10 02:15:24;;;;;;;7.30;1.97;;;;;;;13.04;38.53;96228.72;5009301;28;20216;-66
2021/04/10 02:17:50;;;;;;;3.10;1.67;;;;;;;12.71;39.07;96225.84;5029663;28;20550;-68
2021/04/10 02:20:16;;;;;;;5.00;1.77;;;;;;;12.88;38.94;96231.63;5010060;28;20219;-67
2021/04/10 02:22:45;;;;;;;2.30;1.90;;;;;;;13.12;38.39;96221.69;5018462;28;20820;-67
2021/04/10 02:25:12;;;;;;;4.93;2.07;;;;;;;13.20;38.20;96224.19;5015854;28;20415;-68
2021/04/10 02:27:38;;;;;;;3.70;1.87;;;;;;;13.40;38.06;96228.78;5013923;28;20427;-67
2021/04/10 02:30:06;;;;;;;2.80;1.97;;;;;;;13.09;38.53;96233.41;5014243;28;20873;-67
2021/04/10 02:32:39;;;;;;;4.27;1.60;;;;;;;13.27;38.46;96232.91;5014810;28;20441;-67
2021/04/10 02:35:22;;;;;;;3.63;1.97;;;;;;;13.34;38.40;96231.16;5012476;28;20427;-66
2021/04/10 02:37:49;;;;;;;4.67;1.80;;;;;;;13.08;38.70;96228.34;5013407;28;20461;-69
2021/04/10 02:40:18;;;;;;;5.33;1.77;;;;;;;12.55;39.87;96237.44;5029631;28;20504;-68
2021/04/10 02:42:46;;;;;;;4.47;1.70;;;;;;;12.44;40.26;96241.38;5014547;28;20534;-67
2021/04/10 02:45:14;;;;;;;2.73;1.67;;;;;;;13.06;38.81;96232.00;5014408;28;20434;-69
2021/04/10 02:47:42;;;;;;;6.30;1.73;;;;;;;12.60;40.01;96229.81;5013579;28;20423;-67
2021/04/10 02:50:09;;;;;;;3.07;1.50;;;;;;;13.13;38.77;96229.41;5029284;28;20419;-67
2021/04/10 02:52:48;;;;;;;5.40;2.00;;;;;;;13.12;39.18;96221.69;5028729;28;20493;-69
2021/04/10 02:55:17;;;;;;;4.07;1.70;;;;;;;13.20;38.88;96218.94;5029630;28;20485;-68
2021/04/10 02:57:44;;;;;;;2.10;1.57;;;;;;;13.34;38.46;96220.63;5014368;28;20478;-68
2021/04/10 03:00:11;;;;;;;2.97;1.60;;;;;;;13.04;39.43;96209.53;5017951;28;20464;-68
2021/04/10 03:02:37;;;;;;;4.10;1.50;;;;;;;12.85;39.71;96227.59;5012867;28;20553;-68
2021/04/10 03:05:05;;;;;;;6.80;1.47;;;;;;;12.66;40.44;96223.78;5012208;28;21168;-69
2021/04/10 03:07:30;;;;;;;2.17;1.50;;;;;;;12.89;39.93;96226.22;5014104;28;20423;-68
2021/04/10 03:09:56;;;;;;;4.60;1.83;;;;;;;13.01;39.56;96221.22;5029957;28;20818;-67
2021/04/10 03:12:23;;;;;;;4.03;1.57;;;;;;;12.91;39.84;96231.25;4992336;28;20176;-68
2021/04/10 03:14:50;;;;;;;3.17;1.40;;;;;;;12.90;39.91;96230.47;5010138;28;20866;-67
2021/04/10 03:17:18;;;;;;;5.07;2.00;;;;;;;12.92;40.24;96224.19;5018600;28;21070;-69
2021/04/10 03:19:45;;;;;;;1.40;1.27;;;;;;;12.89;40.21;96234.09;5018001;28;20477;-66
2021/04/10 03:22:13;;;;;;;3.30;1.80;;;;;;;12.44;41.42;96231.69;5024131;28;20474;-67
2021/04/10 03:24:39;;;;;;;4.13;1.70;;;;;;;12.43;41.33;96234.50;4998470;28;20424;-69
2021/04/10 03:27:05;;;;;;;3.03;1.77;;;;;;;12.76;40.96;96223.47;5011655;28;20485;-67
2021/04/10 03:29:30;;;;;;;3.80;1.60;;;;;;;12.48;41.58;96233.91;5011527;28;20180;-67
2021/04/10 03:31:58;;;;;;;3.43;1.70;;;;;;;12.75;nan;96237.63;5012419;28;20437;-67
2021/04/10 03:34:25;;;;;;;2.50;1.80;;;;;;;12.88;40.95;96236.91;5027188;28;20206;-66
2021/04/10 03:36:52;;;;;;;5.97;2.00;;;;;;;12.50;42.23;96237.19;5028930;28;20436;-67
2021/04/10 03:39:18;;;;;;;8.33;2.00;;;;;;;12.43;42.41;96245.00;5011411;28;20482;-67
2021/04/10 03:41:43;;;;;;;6.27;1.37;;;;;;;12.55;42.58;96242.69;5012039;28;20522;-65
2021/04/10 03:44:09;;;;;;;3.93;1.50;;;;;;;12.79;42.19;96238.03;5013713;28;20646;-68
2021/04/10 03:46:38;;;;;;;3.10;1.60;;;;;;;12.34;43.62;96240.88;5013287;28;20229;-67
2021/04/10 03:49:04;;;;;;;3.60;1.60;;;;;;;12.12;43.87;96244.28;5012727;28;20266;-68
2021/04/10 03:51:30;;;;;;;5.40;1.90;;;;;;;12.51;43.01;96246.69;5012137;28;20420;-68
2021/04/10 03:53:56;;;;;;;2.40;1.47;;;;;;;12.09;43.91;96244.69;5012726;28;20443;-68
2021/04/10 03:56:21;;;;;;;6.10;1.73;;;;;;;11.96;44.33;96245.28;5013515;28;20578;-68
2021/04/10 03:58:47;;;;;;;3.70;1.80;;;;;;;11.95;44.75;96248.91;5013136;28;20188;-68
2021/04/10 04:01:13;;;;;;;4.10;1.97;;;;;;;12.31;44.40;96249.94;5012317;28;20254;-67
2021/04/10 04:03:39;;;;;;;1.97;1.47;;;;;;;12.25;44.63;96250.69;5027400;28;20533;-68
2021/04/10 04:06:04;;;;;;;8.20;2.00;;;;;;;12.24;44.42;96249.88;5023158;28;20180;-69
2021/04/10 04:08:30;;;;;;;4.80;1.50;;;;;;;12.28;44.46;96248.50;5011425;28;20196;-67
2021/04/10 04:10:56;;;;;;;7.00;1.70;;;;;;;12.50;44.46;96251.16;5026166;28;20177;-67
2021/04/10 04:13:21;;;;;;;5.77;1.90;;;;;;;12.11;46.31;96247.91;5036815;28;20196;-68
2021/04/10 04:15:47;;;;;;;7.03;1.80;;;;;;;11.96;46.63;96242.66;5015811;28;20185;-68
2021/04/10 04:18:12;;;;;;;1.73;1.60;;;;;;;12.42;46.20;96252.09;5011536;28;20293;-67
2021/04/10 04:20:38;;;;;;;5.30;1.90;;;;;;;11.96;47.02;96247.13;5012863;28;20200;-67
2021/04/10 04:23:04;;;;;;;4.33;1.70;;;;;;;11.74;46.92;96241.00;5012451;28;20656;-67
2021/04/10 04:25:29;;;;;;;4.87;1.57;;;;;;;11.92;46.75;96244.03;5012673;28;20706;-67
2021/04/10 04:27:55;;;;;;;5.80;2.00;;;;;;;11.83;46.40;96259.09;5012016;28;20188;-68
2021/04/10 04:30:21;;;;;;;4.30;1.53;;;;;;;11.66;47.04;96252.41;5021078;28;20179;-66
2021/04/10 04:32:47;;;;;;;10.63;1.67;;;;;;;11.82;46.21;96260.09;5013057;28;20231;-69
2021/04/10 04:35:13;;;;;;;6.57;2.10;;;;;;;11.80;46.34;96256.00;5012933;28;20520;-67
2021/04/10 04:37:40;;;;;;;8.53;1.90;;;;;;;11.96;46.14;96271.56;5011669;28;20191;-66
2021/04/10 04:40:07;;;;;;;4.60;1.63;;;;;;;11.66;46.19;96276.81;5012366;28;20586;-65
2021/04/10 04:42:33;;;;;;;4.67;2.13;;;;;;;12.11;45.38;96273.38;5012879;28;20416;-68
2021/04/10 04:44:58;;;;;;;2.80;1.50;;;;;;;12.09;45.70;96270.09;5012280;28;20521;-69
2021/04/10 04:47:24;;;;;;;3.17;1.37;;;;;;;11.72;45.73;96275.28;5011425;28;20264;-67
2021/04/10 04:49:50;;;;;;;4.00;1.63;;;;;;;11.79;46.10;96280.63;5012548;28;20654;-68
2021/04/10 04:52:15;;;;;;;4.20;1.70;;;;;;;11.72;46.32;96288.41;5011644;28;20181;-68
2021/04/10 04:54:41;;;;;;;8.10;3.07;;;;;;;11.68;47.11;96292.41;5011932;28;20207;-67
2021/04/10 04:57:07;;;;;;;6.27;1.73;;;;;;;11.17;48.60;96293.91;5011968;28;20211;-66
2021/04/10 04:59:32;;;;;;;6.00;1.70;;;;;;;10.80;50.85;96298.16;5012143;28;20283;-66
2021/04/10 05:01:58;;;;;;;7.60;1.80;;;;;;;11.09;51.54;96307.06;5011886;28;20191;-69
2021/04/10 05:04:24;;;;;;;7.90;1.83;;;;;;;11.02;52.96;96316.66;5026469;28;20631;-68
2021/04/10 05:06:49;;;;;;;6.40;1.93;;;;;;;10.71;55.05;96325.41;5012029;28;20224;-67
2021/04/10 05:09:15;;;;;;;4.20;2.07;;;;;;;10.78;55.00;96310.63;5025242;28;20196;-67
2021/04/10 05:11:40;;;;;;;3.37;1.90;;;;;;;10.62;56.00;96321.19;5011598;28;20189;-68
2021/04/10 05:14:06;;;;;;;4.83;1.90;;;;;;;10.33;56.45;96322.69;5011055;28;20609;-70
2021/04/10 05:16:32;;;;;;;5.20;2.03;;;;;;;10.32;56.51;96326.28;5012369;28;20188;-67
2021/04/10 05:18:58;;;;;;;4.60;2.20;;;;;;;10.65;55.54;96315.63;5010474;28;20204;-68
2021/04/10 05:21:23;;;;;;;2.57;1.80;;;;;;;10.30;56.53;96314.16;5012024;28;20185;-67
2021/04/10 05:23:49;;;;;;;5.23;1.97;;;;;;;10.55;55.39;96319.28;5020241;28;20444;-68
2021/04/10 05:26:15;;;;;;;7.20;2.10;;;;;;;11.06;54.43;96328.44;5022073;28;20461;-69
2021/04/10 05:28:41;;;;;;;2.20;1.83;;;;;;;10.78;54.46;96349.94;5017070;28;20517;-69
2021/04/10 05:31:06;;;;;;;6.17;2.10;;;;;;;10.67;54.80;96332.78;5031126;28;20233;-67
2021/04/10 05:33:32;;;;;;;3.67;1.70;;;;;;;10.79;54.32;96338.47;5031033;28;20290;-67
2021/04/10 05:35:58;;;;;;;3.20;1.70;;;;;;;10.45;54.87;96340.47;5023080;28;20204;-68
2021/04/10 05:38:25;;;;;;;4.33;1.90;;;;;;;10.93;53.78;96339.50;5031849;28;20245;-68
2021/04/10 05:40:51;;;;;;;4.93;2.10;;;;;;;10.82;53.61;96351.22;5030245;28;20455;-68
2021/04/10 05:43:17;;;;;;;5.37;1.90;;;;;;;10.53;53.76;96344.84;5031054;28;21039;-67
2021/04/10 05:45:43;;;;;;;3.30;1.90;;;;;;;11.07;52.39;96362.31;5031907;28;20514;-67
2021/04/10 05:48:08;;;;;;;3.40;1.90;;;;;;;10.93;52.44;96365.69;5015685;28;20655;-68
2021/04/10 05:50:34;;;;;;;6.80;2.60;;;;;;;10.89;52.25;96369.69;5024161;28;20418;-66
2021/04/10 05:53:00;;;;;;;6.37;2.20;;;;;;;10.68;52.53;96368.50;5029868;28;20199;-66
2021/04/10 05:55:25;;;;;;;6.43;2.00;;;;;;;10.80;51.90;96370.72;5031582;28;20266;-65
2021/04/10 05:57:51;;;;;;;3.47;1.20;;;;;;;10.76;51.70;96380.72;5031243;28;20191;-68
2021/04/10 06:00:17;;;;;;;2.13;1.40;;;;;;;11.28;50.70;96376.56;5036543;28;20688;-67
2021/04/10 06:02:43;;;;;;;8.93;1.80;;;;;;;11.12;50.65;96376.72;5038147;28;20202;-67
2021/04/10 06:05:10;;;;;;;4.20;2.07;;;;;;;11.45;49.71;96374.66;5020035;28;20423;-67
2021/04/10 06:07:35;;;;;;;7.40;2.20;;;;;;;11.07;50.95;96377.25;5036872;28;20249;-70
2021/04/10 06:10:01;;;;;;;2.17;1.67;;;;;;;10.55;52.01;96370.84;5018100;28;20513;-68
2021/04/10 06:12:27;;;;;;;4.13;1.93;;;;;;;10.88;51.10;96374.09;5037713;28;20638;-68
2021/04/10 06:14:52;;;;;;;15.20;2.20;;;;;;;10.83;51.48;96386.09;5038080;28;20540;-69
2021/04/10 06:17:18;;;;;;;5.73;2.20;;;;;;;11.20;50.47;96387.13;5036669;28;20189;-68
2021/04/10 06:19:43;;;;;;;3.10;2.37;;;;;;;10.94;51.22;96398.00;5030453;28;20195;-68
2021/04/10 06:22:09;;;;;;;4.33;1.47;;;;;;;10.99;51.18;96393.03;5037203;28;20183;-66
2021/04/10 06:24:35;;;;;;;3.97;1.77;;;;;;;10.70;51.53;96386.69;5037932;28;20203;-68
2021/04/10 06:27:00;;;;;;;4.57;2.00;;;;;;;10.89;51.84;96390.66;5037872;28;20183;-68
2021/04/10 06:29:26;;;;;;;1.97;1.43;;;;;;;11.31;50.75;96396.41;5032963;28;20179;-66
2021/04/10 06:31:52;;;;;;;3.50;1.90;;;;;;;11.03;51.23;96373.34;5037259;28;20263;-70
2021/04/10 06:34:17;;;;;;;3.77;1.93;;;;;;;10.96;51.85;96396.03;5036997;28;20198;-68
2021/04/10 06:36:43;;;;;;;3.00;1.93;;;;;;;11.57;50.58;96396.00;5037050;28;20719;-68
2021/04/10 06:39:08;;;;;;;8.10;3.40;;;;;;;11.25;51.22;96397.09;5037462;28;20180;-69
2021/04/10 06:41:34;;;;;;;9.10;1.70;;;;;;;11.76;49.84;96401.75;5037421;28;20182;-68
2021/04/10 06:44:01;;;;;;;1.87;1.53;;;;;;;10.89;52.36;96401.94;5037280;28;20196;-67
2021/04/10 06:46:32;;;;;;;2.30;1.83;;;;;;;10.87;52.31;96406.53;5037488;28;20186;-67
2021/04/10 06:48:58;;;;;;;2.53;1.50;;;;;;;11.37;51.41;96398.31;5036837;28;20924;-68
2021/04/10 06:51:24;;;;;;;3.80;1.80;;;;;;;11.26;51.17;96410.06;5036870;28;20406;-68
2021/04/10 06:53:50;;;;;;;3.63;1.73;;;;;;;11.15;52.21;96413.09;5030331;28;20817;-68
2021/04/10 06:56:23;;;;;;;1.97;1.83;;;;;;;10.98;53.57;96412.38;5036147;28;20430;-67
2021/04/10 06:59:07;;;;;;;4.27;1.80;;;;;;;10.93;54.17;96414.72;5033857;28;20625;-68
2021/04/10 07:01:34;;;;;;;3.30;1.70;;;;;;;10.63;55.03;96417.16;5037373;28;20913;-67
2021/04/10 07:04:00;;;;;;;2.57;1.90;;;;;;;11.26;53.47;96412.69;5036485;28;20966;-68
2021/04/10 07:06:26;;;;;;;2.00;1.70;;;;;;;11.77;52.24;96412.06;5037203;28;20993;-69
2021/04/10 07:08:51;;;;;;;4.30;1.77;;;;;;;11.86;51.81;96406.72;5034378;28;20430;-68
2021/04/10 07:11:17;;;;;;;3.73;1.60;;;;;;;11.32;53.04;96413.78;5032647;28;20665;-67
2021/04/10 07:13:44;;;;;;;6.03;1.60;;;;;;;11.54;52.44;96414.72;5034431;28;20207;-69
2021/04/10 07:16:10;;;;;;;6.03;1.67;;;;;;;11.71;51.69;96420.66;5033312;28;20530;-67
2021/04/10 07:18:36;;;;;;;6.97;2.20;;;;;;;11.01;53.34;96415.47;5028646;28;20430;-68
2021/04/10 07:21:26;;;;;;;3.00;1.77;;;;;;;11.86;51.00;96417.22;5033780;28;20886;-68
2021/04/10 07:23:54;;;;;;;3.83;2.80;;;;;;;11.67;51.48;96419.38;5034504;28;20967;-68
2021/04/10 07:26:22;;;;;;;3.00;1.57;;;;;;;11.70;50.99;96418.19;5034355;28;20418;-68
2021/04/10 07:28:48;;;;;;;2.70;1.80;;;;;;;11.53;51.24;96426.22;5043467;28;20589;-70
2021/04/10 07:31:15;;;;;;;8.07;2.30;;;;;;;11.53;51.54;96427.03;5041216;28;20460;-71
2021/04/10 07:33:57;;;;;;;13.03;2.03;;;;;;;11.43;51.78;96429.09;5025370;28;20976;-68
2021/04/10 07:36:24;;;;;;;5.37;1.93;;;;;;;11.53;51.54;96429.66;5034404;28;20415;-68
2021/04/10 07:38:56;;;;;;;6.40;1.77;;;;;;;11.48;51.82;96431.19;5034051;28;20502;-67
2021/04/10 07:41:22;;;;;;;2.70;2.07;;;;;;;12.07;50.07;96438.38;5024721;28;20466;-67
2021/04/10 07:43:48;;;;;;;2.53;1.40;;;;;;;11.82;50.70;96438.59;5015935;28;20453;-68
2021/04/10 07:46:27;;;;;;;4.70;1.90;;;;;;;11.71;51.15;96444.28;5033110;28;20271;-67
2021/04/10 07:49:12;;;;;;;5.90;2.10;;;;;;;11.70;51.62;96441.81;5025927;28;20188;-69
2021/04/10 07:52:00;;;;;;;4.60;1.90;;;;;;;11.59;52.50;96448.34;5031981;28;20403;-67
2021/04/10 07:54:28;;;;;;;3.27;1.87;;;;;;;11.92;52.55;96453.28;5034050;28;20485;-65
2021/04/10 07:56:59;;;;;;;7.10;1.97;;;;;;;11.31;54.97;96451.50;5033761;28;20933;-68
2021/04/10 07:59:26;;;;;;;3.90;2.03;;;;;;;11.54;54.73;96451.47;5029725;28;20450;-69
2021/04/10 08:01:51;;;;;;;2.47;2.00;;;;;;;11.17;55.52;96464.38;5032337;28;20449;-67
2021/04/10 08:04:18;;;;;;;2.60;1.70;;;;;;;11.68;55.23;96461.19;5026303;28;20442;-68
2021/04/10 08:06:54;;;;;;;4.70;1.80;;;;;;;11.73;54.82;96465.09;5035381;28;20179;-67
2021/04/10 08:09:34;;;;;;;3.00;1.77;;;;;;;11.94;54.18;96462.59;5032391;28;20472;-68
2021/04/10 08:12:06;;;;;;;5.20;2.20;;;;;;;11.47;55.31;96461.03;5035244;28;20498;-70
2021/04/10 08:14:43;;;;;;;2.93;2.13;;;;;;;11.53;54.69;96466.41;5026756;28;20569;-71
2021/04/10 08:17:09;;;;;;;2.20;1.80;;;;;;;11.50;54.43;96461.50;5033745;28;20422;-69
2021/04/10 08:19:35;;;;;;;4.40;2.00;;;;;;;11.76;53.16;96468.19;5028334;28;20459;-71
2021/04/10 08:22:02;;;;;;;4.60;2.17;;;;;;;10.92;55.02;96463.69;5031183;28;20477;-69
2021/04/10 08:24:36;;;;;;;2.13;1.70;;;;;;;11.50;54.79;96471.19;5032314;28;21095;-70
2021/04/10 08:27:10;;;;;;;2.30;2.03;;;;;;;11.95;53.09;96464.22;5024297;28;20418;-70
2021/04/10 08:29:37;;;;;;;4.33;1.80;;;;;;;11.88;54.05;96467.75;5030082;28;20936;-70
2021/04/10 08:32:04;;;;;;;1.90;1.70;;;;;;;11.41;53.87;96467.81;5024139;28;20431;-69
2021/04/10 08:34:30;;;;;;;2.40;2.20;;;;;;;12.14;52.82;96473.44;5033613;28;20442;-69
2021/04/10 08:36:59;;;;;;;3.33;1.97;;;;;;;11.87;53.41;96480.06;5033229;28;20463;-69
2021/04/10 08:39:28;;;;;;;1.70;1.60;;;;;;;11.33;54.60;96479.16;5032727;28;20458;-71
2021/04/10 08:41:59;;;;;;;4.40;1.77;;;;;;;12.05;53.72;96479.75;5032433;28;20426;-71
2021/04/10 08:44:28;;;;;;;2.00;1.70;;;;;;;12.26;52.73;96478.22;5032770;28;20443;-68
2021/04/10 08:46:53;;;;;;;4.80;2.10;;;;;;;12.27;53.30;96474.59;5031623;28;20418;-70
2021/04/10 08:49:20;;;;;;;2.73;1.83;;;;;;;11.98;53.86;96469.16;5031456;28;20501;-70
2021/04/10 08:51:48;;;;;;;7.97;2.00;;;;;;;12.55;52.44;96479.22;5031296;28;20194;-70
2021/04/10 08:54:14;;;;;;;2.10;1.90;;;;;;;11.88;52.92;96484.31;5031796;28;20442;-71
2021/04/10 08:56:40;;;;;;;4.60;2.07;;;;;;;11.72;53.60;96479.22;5030848;28;20926;-69
2021/04/10 08:59:12;;;;;;;4.93;1.67;;;;;;;11.56;52.96;96477.53;5027800;28;20458;-69
2021/04/10 09:01:39;;;;;;;2.27;1.60;;;;;;;11.60;52.89;96465.69;5032414;28;20419;-69
2021/04/10 09:04:05;;;;;;;3.00;2.27;;;;;;;11.60;53.03;96466.50;5032167;28;20485;-69
2021/04/10 09:06:31;;;;;;;4.20;1.70;;;;;;;12.27;51.56;96477.25;5014960;28;20454;-70
2021/04/10 09:09:12;;;;;;;3.10;1.73;;;;;;;11.57;51.94;96460.81;5029142;28;20521;-71
2021/04/10 09:11:45;;;;;;;2.80;1.60;;;;;;;12.11;50.96;96467.72;5032493;28;20434;-71
2021/04/10 09:14:13;;;;;;;1.80;1.70;;;;;;;12.33;49.13;96466.00;5032206;28;20453;-71
2021/04/10 09:16:51;;;;;;;7.03;1.80;;;;;;;12.60;48.71;96466.38;5014795;28;20936;-69
2021/04/10 09:19:22;;;;;;;3.10;1.60;;;;;;;12.81;47.78;96462.16;5024848;28;20791;-71
2021/04/10 09:21:48;;;;;;;2.00;1.80;;;;;;;13.02;47.03;96459.56;5030413;28;20753;-69
2021/04/10 09:24:23;;;;;;;4.57;1.83;;;;;;;13.39;46.17;96469.22;5032342;28;20486;-68
2021/04/10 09:27:06;;;;;;;2.67;1.47;;;;;;;12.97;46.90;96461.94;5032873;28;20418;-70
2021/04/10 09:30:04;;;;;;;4.33;1.43;;;;;;;13.15;46.34;96458.06;5027383;28;20406;-69
2021/04/10 09:32:46;;;;;;;6.07;1.60;;;;;;;13.25;46.23;96449.88;5015047;28;20431;-68
2021/04/10 09:35:19;;;;;;;1.57;1.30;;;;;;;13.30;46.05;96463.25;5031955;28;20418;-70
2021/04/10 09:37:51;;;;;;;5.63;1.93;;;;;;;13.88;44.91;96463.19;5022596;28;20443;-71
2021/04/10 09:40:43;;;;;;;5.73;2.00;;;;;;;14.16;44.34;96470.28;5031208;28;20450;-70
2021/04/10 09:43:09;;;;;;;5.27;1.87;;;;;;;14.18;44.08;96456.91;5031812;28;20498;-70
2021/04/10 09:45:36;;;;;;;5.87;1.30;;;;;;;14.29;43.85;96459.81;5032962;28;20414;-72
2021/04/10 09:48:02;;;;;;;4.53;2.40;;;;;;;14.08;44.52;96465.97;5024312;28;20549;-71
2021/04/10 09:50:32;;;;;;;8.80;2.97;;;;;;;14.38;43.30;96462.28;5031833;28;20905;-71
2021/04/10 09:52:59;;;;;;;5.53;1.80;;;;;;;14.69;42.73;96453.16;5030178;28;20208;-69
2021/04/10 09:55:26;;;;;;;4.33;1.63;;;;;;;14.87;42.33;96449.97;5017102;28;20531;-69
2021/04/10 09:57:56;;;;;;;14.60;6.07;;;;;;;14.76;42.70;96459.25;5018425;28;20478;-70
2021/04/10 10:00:24;;;;;;;3.87;1.30;;;;;;;14.72;42.13;96453.56;5016557;28;20478;-71
2021/04/10 10:02:53;;;;;;;8.73;2.37;;;;;;;13.96;44.09;96460.44;5032937;28;20953;-71
2021/04/10 10:05:20;;;;;;;2.33;1.50;;;;;;;14.47;43.45;96455.88;5032729;28;20426;-70
2021/04/10 10:07:46;;;;;;;1.60;1.50;;;;;;;15.07;41.80;96457.94;5014942;28;20808;-71
2021/04/10 10:10:12;;;;;;;4.33;1.40;;;;;;;15.26;40.94;96451.09;5030558;28;20438;-67
2021/04/10 10:12:38;;;;;;;1.90;1.60;;;;;;;14.76;42.35;96455.81;5032289;28;20179;-69
2021/04/10 10:15:19;;;;;;;3.37;1.40;;;;;;;15.32;41.03;96442.34;5032438;28;20476;-70
2021/04/10 10:17:45;;;;;;;3.50;1.80;;;;;;;15.44;40.46;96442.56;5013813;28;20530;-70
2021/04/10 10:20:11;;;;;;;3.60;1.40;;;;;;;15.05;41.35;96442.31;5018998;28;20458;-69
2021/04/10 10:22:39;;;;;;;4.13;2.47;;;;;;;15.39;40.63;96442.34;5034109;28;20537;-69
2021/04/10 10:25:06;;;;;;;2.83;1.57;;;;;;;15.17;40.86;96434.63;5012304;28;20465;-70
2021/04/10 10:27:36;;;;;;;2.70;1.67;;;;;;;15.33;40.28;96428.13;5000779;28;20885;-70
2021/04/10 10:30:11;;;;;;;5.10;3.33;;;;;;;15.14;40.91;96437.66;5011784;28;20771;-67
2021/04/10 10:32:36;;;;;;;6.50;2.07;;;;;;;15.31;40.37;96434.63;5013635;28;20461;-69
2021/04/10 10:35:09;;;;;;;7.80;1.70;;;;;;;15.24;40.39;96441.75;5029896;28;20805;-68
2021/04/10 10:37:35;;;;;;;3.53;1.30;;;;;;;15.22;40.53;96441.13;5026932;28;20194;-71
2021/04/10 10:40:00;;;;;;;3.43;1.20;;;;;;;15.09;40.81;96439.25;5028404;28;20450;-70
2021/04/10 10:42:26;;;;;;;1.30;1.20;;;;;;;14.85;41.19;96446.72;5032661;28;20180;-70
2021/04/10 10:44:52;;;;;;;2.47;1.50;;;;;;;15.27;40.14;96436.03;5044965;28;20180;-69
2021/04/10 10:47:18;;;;;;;5.07;1.50;;;;;;;15.00;41.16;96442.09;5035962;28;20199;-70
2021/04/10 10:49:50;;;;;;;4.33;2.53;;;;;;;15.39;40.53;96429.16;5042893;28;20700;-69
2021/04/10 10:52:17;;;;;;;2.93;1.30;;;;;;;15.61;39.71;96434.28;5034932;28;20597;-69
2021/04/10 10:54:44;;;;;;;3.87;1.50;;;;;;;16.10;39.13;96437.50;5035038;28;20438;-70
2021/04/10 10:57:11;;;;;;;3.40;1.60;;;;;;;15.94;38.94;96434.25;5035717;28;20469;-70
2021/04/10 10:59:37;;;;;;;2.90;1.43;;;;;;;16.28;38.49;96427.09;5032041;28;20540;-70
2021/04/10 11:02:03;;;;;;;5.00;1.33;;;;;;;16.26;38.66;96425.66;5035129;28;20843;-70
2021/04/10 11:04:30;;;;;;;1.37;1.10;;;;;;;16.00;38.81;96426.53;5036005;28;20212;-71
2021/04/10 11:06:58;;;;;;;4.20;2.10;;;;;;;16.27;38.54;96422.81;5034156;28;20753;-69
2021/04/10 11:09:24;;;;;;;6.73;1.90;;;;;;;16.56;37.88;96419.88;5031785;28;20533;-72
2021/04/10 11:11:52;;;;;;;8.10;1.70;;;;;;;16.26;38.14;96417.72;5033714;28;20427;-69
2021/04/10 11:14:20;;;;;;;3.27;2.30;;;;;;;16.53;37.96;96415.81;5034542;28;20457;-70
2021/04/10 11:16:48;;;;;;;7.43;2.97;;;;;;;16.63;37.37;96415.41;5036203;28;20489;-71
2021/04/10 11:19:38;;;;;;;2.23;1.80;;;;;;;16.61;37.36;96412.13;5029157;28;20426;-70
2021/04/10 11:22:12;;;;;;;2.60;1.30;;;;;;;15.35;39.89;96415.56;5034830;28;20430;-71
2021/04/10 11:24:37;;;;;;;2.70;1.27;;;;;;;15.82;38.87;96405.00;5035582;28;20446;-70
2021/04/10 11:27:19;;;;;;;2.20;1.50;;;;;;;16.28;38.15;96403.31;5035685;28;20759;-70
2021/04/10 11:30:03;;;;;;;2.70;1.73;;;;;;;16.23;37.91;96402.31;5012029;28;20664;-70
2021/04/10 11:32:45;;;;;;;5.23;1.87;;;;;;;16.58;37.28;96394.03;5043150;28;20476;-71
2021/04/10 11:35:16;;;;;;;3.83;1.87;;;;;;;16.51;37.71;96390.59;5035170;28;20434;-70
2021/04/10 11:37:50;;;;;;;2.00;1.20;;;;;;;16.04;38.18;96391.56;5036718;28;20477;-70
2021/04/10 11:40:15;;;;;;;2.13;1.30;;;;;;;16.53;37.31;96393.84;5036690;28;20461;-70